| time (UTC) | temp F | wind direction | speed MPH | gust MPH | rain 1hr in | rain 24hr in | rain mn in | humidity % | barometer mb |
| 20260906225524 | 101 | 214 | 3.0 | 7.0 | 0.00 | 0.00 | 0.00 | 37 | |
| 20260906224533 | 101 | 222 | 3.0 | 7.0 | 0.00 | 0.00 | 0.00 | 37 | |
| 20260906223524 | 101 | 235 | 4.0 | 8.0 | 0.00 | 0.00 | 0.00 | 37 | |
| 20260906222533 | 101 | 238 | 4.0 | 9.0 | 0.00 | 0.00 | 0.00 | 38 | |
| 20260906221544 | 102 | 226 | 4.0 | 11.0 | 0.00 | 0.00 | 0.00 | 36 | |
| 20260906220552 | 101 | 229 | 3.0 | 10.0 | 0.00 | 0.00 | 0.00 | 37 | |
| 20260906215525 | 102 | 216 | 3.0 | 10.0 | 0.00 | 0.00 | 0.00 | 36 | |
| 20260906214532 | 102 | 234 | 3.0 | 7.0 | 0.00 | 0.00 | 0.00 | 36 | |
| 20260906213524 | 103 | 237 | 3.0 | 7.0 | 0.00 | 0.00 | 0.00 | 35 | |
| 20260906212532 | 104 | 219 | 3.0 | 7.0 | 0.00 | 0.00 | 0.00 | 35 | |
| 20260906211524 | 103 | 234 | 4.0 | 9.0 | 0.00 | 0.00 | 0.00 | 35 | |
| 20260906210533 | 105 | 226 | 3.0 | 11.0 | 0.00 | 0.00 | 0.00 | 34 | |
| 20260906205525 | 103 | 221 | 3.0 | 8.0 | 0.00 | 0.00 | 0.00 | 36 | |
| 20260906204532 | 102 | 210 | 4.0 | 8.0 | 0.00 | 0.00 | 0.00 | 36 | |
| 20260906203525 | 103 | 228 | 4.0 | 9.0 | 0.00 | 0.00 | 0.00 | 35 | |
| 20260906202532 | 104 | 225 | 3.0 | 8.0 | 0.00 | 0.00 | 0.00 | 35 | |
| 20260906201524 | 103 | 219 | 4.0 | 7.0 | 0.00 | 0.00 | 0.00 | 36 | |
| 20260906200552 | 104 | 217 | 4.0 | 11.0 | 0.00 | 0.00 | 0.00 | 35 | |
| 20260906195524 | 104 | 216 | 4.0 | 10.0 | 0.00 | 0.00 | 0.00 | 36 | |
| 20260906194532 | 101 | 228 | 2.0 | 6.0 | 0.00 | 0.00 | 0.00 | 39 | |
| 20260906193524 | 103 | 230 | 4.0 | 9.0 | 0.00 | 0.00 | 0.00 | 37 | |
| 20260906192532 | 104 | 221 | 2.0 | 9.0 | 0.00 | 0.00 | 0.00 | 35 | |
| 20260906191524 | 102 | 222 | 3.0 | 11.0 | 0.00 | 0.00 | 0.00 | 37 | |
| 20260906190532 | 102 | 234 | 3.0 | 6.0 | 0.00 | 0.00 | 0.00 | 39 | |
| 20260906185524 | 102 | 228 | 2.0 | 7.0 | 0.00 | 0.00 | 0.00 | 38 | |
| 20260906184533 | 102 | 228 | 2.0 | 4.0 | 0.00 | 0.00 | 0.00 | 39 | |
| 20260906183525 | 100 | 223 | 2.0 | 5.0 | 0.00 | 0.00 | 0.00 | 41 | |
| 20260906182552 | 101 | 239 | 4.0 | 12.0 | 0.00 | 0.00 | 0.00 | 40 | |
| 20260906181524 | 100 | 233 | 4.0 | 8.0 | 0.00 | 0.00 | 0.00 | 40 | |
| 20260906180532 | 100 | 221 | 3.0 | 8.0 | 0.00 | 0.00 | 0.00 | 42 | |
| 20260906175524 | 99 | 229 | 4.0 | 7.0 | 0.00 | 0.00 | 0.00 | 43 | |
| 20260906174532 | 100 | 215 | 3.0 | 7.0 | 0.00 | 0.00 | 0.00 | 42 | |
| 20260906173544 | 101 | 218 | 3.0 | 7.0 | 0.00 | 0.00 | 0.00 | 41 | |
| 20260906172552 | 99 | 233 | 3.0 | 7.0 | 0.00 | 0.00 | 0.00 | 43 | |
| 20260906171524 | 98 | 222 | 2.0 | 7.0 | 0.00 | 0.00 | 0.00 | 45 | |
| 20260906170553 | 100 | 225 | 3.0 | 7.0 | 0.00 | 0.00 | 0.00 | 43 | |
| 20260906165524 | 98 | 230 | 3.0 | 7.0 | 0.00 | 0.00 | 0.00 | 46 | |
| 20260906164532 | 98 | 214 | 3.0 | 10.0 | 0.00 | 0.00 | 0.00 | 46 | |
| 20260906163524 | 97 | 234 | 3.0 | 9.0 | 0.00 | 0.00 | 0.00 | 48 | |
| 20260906162532 | 97 | 237 | 3.0 | 8.0 | 0.00 | 0.00 | 0.00 | 48 | |
| 20260906161524 | 95 | 231 | 2.0 | 7.0 | 0.00 | 0.00 | 0.00 | 52 | |
| 20260906160532 | 94 | 246 | 2.0 | 5.0 | 0.00 | 0.00 | 0.00 | 53 | |
| 20260906155545 | 95 | 224 | 3.0 | 7.0 | 0.00 | 0.00 | 0.00 | 54 | |
| 20260906154532 | 94 | 240 | 3.0 | 5.0 | 0.00 | 0.00 | 0.00 | 55 | |
| 20260906153524 | 94 | 241 | 1.0 | 6.0 | 0.00 | 0.00 | 0.00 | 57 | |
| 20260906152532 | 92 | 204 | 1.0 | 4.0 | 0.00 | 0.00 | 0.00 | 59 | |
| 20260906151524 | 91 | 236 | 2.0 | 7.0 | 0.00 | 0.00 | 0.00 | 61 | |
| 20260906150532 | 90 | 227 | 2.0 | 5.0 | 0.00 | 0.00 | 0.00 | 63 | |
| 20260906145524 | 88 | 215 | 2.0 | 7.0 | 0.00 | 0.00 | 0.00 | 67 | |
| 20260906144532 | 86 | 220 | 1.0 | 4.0 | 0.00 | 0.00 | 0.00 | 71 | |
| 20260906143525 | 83 | 240 | 2.0 | 4.0 | 0.00 | 0.00 | 0.00 | 76 | |
| 20260906142532 | 82 | 249 | 1.0 | 4.0 | 0.00 | 0.00 | 0.00 | 79 | |
| 20260906141524 | 81 | 243 | 1.0 | 3.0 | 0.00 | 0.00 | 0.00 | 81 | |
| 20260906140532 | 80 | 250 | 1.0 | 3.0 | 0.00 | 0.00 | 0.00 | 83 | |
| 20260906135524 | 79 | 209 | 1.0 | 3.0 | 0.00 | 0.00 | 0.00 | 84 | |
| 20260906134532 | 78 | 265 | 1.0 | 3.0 | 0.00 | 0.00 | 0.00 | 86 | |
| 20260906133544 | 78 | 212 | 1.0 | 4.0 | 0.00 | 0.00 | 0.00 | 88 | |
| 20260906132552 | 77 | 256 | 1.0 | 2.0 | 0.00 | 0.00 | 0.00 | 90 | |
| 20260906131524 | 75 | 247 | 1.0 | 3.0 | 0.00 | 0.00 | 0.00 | 92 | |
| 20260906130532 | 73 | 236 | 0.0 | 1.0 | 0.00 | 0.00 | 0.00 | 95 | |
| 20260906125524 | 73 | 0.0 | 0.0 | 0.00 | 0.00 | 0.00 | 95 | ||
| 20260906124532 | 72 | 0.0 | 0.0 | 0.00 | 0.00 | 0.00 | 96 | ||
| 20260906123525 | 72 | 0.0 | 0.0 | 0.00 | 0.00 | 0.00 | 96 | ||
| 20260906122532 | 72 | 0.0 | 0.0 | 0.00 | 0.00 | 0.00 | 95 | ||
| 20260906121544 | 72 | 0.0 | 0.0 | 0.00 | 0.00 | 0.00 | 94 | ||
| 20260906120532 | 72 | 0.0 | 0.0 | 0.00 | 0.00 | 0.00 | 95 | ||
| 20260906115544 | 73 | 0.0 | 0.0 | 0.00 | 0.00 | 0.00 | 94 | ||
| 20260906114532 | 73 | 0.0 | 0.0 | 0.00 | 0.00 | 0.00 | 94 | ||
| 20260906113524 | 73 | 0.0 | 0.0 | 0.00 | 0.00 | 0.00 | 93 | ||
| 20260906112532 | 74 | 0.0 | 0.0 | 0.00 | 0.00 | 0.00 | 93 | ||
| 20260906111544 | 74 | 0.0 | 1.0 | 0.00 | 0.00 | 0.00 | 94 | ||
| 20260906110532 | 73 | 242 | 0.0 | 1.0 | 0.00 | 0.00 | 0.00 | 94 | |
| 20260906105524 | 73 | 0.0 | 0.0 | 0.00 | 0.00 | 0.00 | 94 | ||
| 20260906104552 | 73 | 0.0 | 0.0 | 0.00 | 0.00 | 0.00 | 93 | ||
| 20260906103524 | 73 | 0.0 | 0.0 | 0.00 | 0.00 | 0.00 | 93 | ||
| 20260906102533 | 74 | 0.0 | 0.0 | 0.00 | 0.00 | 0.00 | 92 | ||
| 20260906101524 | 74 | 0.0 | 0.0 | 0.00 | 0.00 | 0.00 | 92 | ||
| 20260906100552 | 74 | 0.0 | 0.0 | 0.00 | 0.00 | 0.00 | 89 | ||
| 20260906095524 | 75 | 0.0 | 0.0 | 0.00 | 0.00 | 0.00 | 89 | ||
| 20260906094532 | 75 | 0.0 | 0.0 | 0.00 | 0.00 | 0.00 | 89 | ||
| 20260906093524 | 76 | 245 | 0.0 | 2.0 | 0.00 | 0.00 | 0.00 | 88 | |
| 20260906092533 | 76 | 264 | 0.0 | 1.0 | 0.00 | 0.00 | 0.00 | 88 | |
| 20260906091524 | 76 | 232 | 0.0 | 1.0 | 0.00 | 0.00 | 0.00 | 88 | |
| 20260906090532 | 76 | 211 | 0.0 | 1.0 | 0.00 | 0.00 | 0.00 | 87 | |
| 20260906085524 | 77 | 258 | 0.0 | 2.0 | 0.00 | 0.00 | 0.00 | 86 | |
| 20260906084532 | 77 | 224 | 0.0 | 2.0 | 0.00 | 0.00 | 0.00 | 86 | |
| 20260906083524 | 77 | 207 | 0.0 | 3.0 | 0.00 | 0.00 | 0.00 | 86 | |
| 20260906082532 | 77 | 0.0 | 0.0 | 0.00 | 0.00 | 0.00 | 85 | ||
| 20260906081524 | 78 | 221 | 0.0 | 2.0 | 0.00 | 0.00 | 0.00 | 84 | |
| 20260906080532 | 78 | 261 | 0.0 | 2.0 | 0.00 | 0.00 | 0.00 | 84 | |
| 20260906075524 | 79 | 242 | 1.0 | 2.0 | 0.00 | 0.00 | 0.00 | 83 | |
| 20260906074532 | 79 | 230 | 1.0 | 4.0 | 0.00 | 0.00 | 0.00 | 82 | |
| 20260906073544 | 79 | 228 | 1.0 | 4.0 | 0.00 | 0.00 | 0.00 | 82 | |
| 20260906072532 | 79 | 225 | 1.0 | 5.0 | 0.00 | 0.00 | 0.00 | 81 | |
| 20260906071544 | 80 | 229 | 1.0 | 4.0 | 0.00 | 0.00 | 0.00 | 80 | |
| 20260906070532 | 80 | 234 | 1.0 | 4.0 | 0.00 | 0.00 | 0.00 | 80 | |
| 20260906065524 | 80 | 227 | 2.0 | 4.0 | 0.00 | 0.00 | 0.00 | 80 | |
| 20260906064532 | 80 | 220 | 2.0 | 4.0 | 0.00 | 0.00 | 0.00 | 79 | |
| 20260906063524 | 81 | 237 | 1.0 | 2.0 | 0.00 | 0.00 | 0.00 | 79 | |
| 20260906062532 | 81 | 217 | 2.0 | 5.0 | 0.00 | 0.00 | 0.00 | 78 | |
| 20260906061524 | 81 | 239 | 0.0 | 2.0 | 0.00 | 0.00 | 0.00 | 78 | |
| 20260906060533 | 81 | 227 | 0.0 | 2.0 | 0.00 | 0.00 | 0.00 | 78 | |
| 20260906055524 | 81 | 228 | 1.0 | 2.0 | 0.00 | 0.00 | 0.00 | 77 | |
| 20260906054532 | 81 | 245 | 0.0 | 2.0 | 0.00 | 0.00 | 0.00 | 78 | |
| 20260906053544 | 81 | 236 | 0.0 | 2.0 | 0.00 | 0.00 | 0.00 | 77 | |
| 20260906052532 | 81 | 241 | 1.0 | 3.0 | 0.00 | 0.00 | 0.00 | 77 | |
| 20260906051605 | 81 | 217 | 1.0 | 4.0 | 0.00 | 0.00 | 0.00 | 77 | |
| 20260906050552 | 81 | 263 | 1.0 | 2.0 | 0.00 | 0.00 | 0.00 | 76 | |
| 20260906045524 | 82 | 254 | 0.0 | 2.0 | 0.00 | 0.00 | 0.00 | 76 | |
| 20260906044532 | 82 | 231 | 1.0 | 4.0 | 0.00 | 0.00 | 0.00 | 76 | |
| 20260906043525 | 82 | 227 | 0.0 | 2.0 | 0.00 | 0.00 | 0.00 | 75 | |
| 20260906042532 | 82 | 229 | 0.0 | 2.0 | 0.00 | 0.00 | 0.00 | 74 | |
| 20260906041525 | 82 | 227 | 1.0 | 3.0 | 0.00 | 0.00 | 0.00 | 74 | |
| 20260906040533 | 82 | 216 | 0.0 | 3.0 | 0.00 | 0.00 | 0.00 | 74 | |
| 20260906035544 | 83 | 259 | 1.0 | 2.0 | 0.00 | 0.00 | 0.00 | 74 | |
| 20260906034532 | 83 | 267 | 0.0 | 2.0 | 0.00 | 0.00 | 0.00 | 73 | |
| 20260906033524 | 84 | 0.0 | 0.0 | 0.00 | 0.00 | 0.00 | 72 | ||
| 20260906032532 | 84 | 228 | 1.0 | 4.0 | 0.00 | 0.00 | 0.00 | 71 | |
| 20260906031525 | 85 | 246 | 1.0 | 4.0 | 0.00 | 0.00 | 0.00 | 71 | |
| 20260906030532 | 85 | 244 | 1.0 | 4.0 | 0.00 | 0.00 | 0.00 | 70 | |
| 20260906025524 | 85 | 251 | 1.0 | 4.0 | 0.00 | 0.00 | 0.00 | 70 | |
| 20260906024532 | 85 | 249 | 1.0 | 3.0 | 0.00 | 0.00 | 0.00 | 69 | |
| 20260906023524 | 85 | 221 | 1.0 | 4.0 | 0.00 | 0.00 | 0.00 | 69 | |
| 20260906022533 | 86 | 241 | 1.0 | 6.0 | 0.00 | 0.00 | 0.00 | 68 | |
| 20260906021544 | 86 | 241 | 1.0 | 5.0 | 0.00 | 0.00 | 0.00 | 67 | |
| 20260906020532 | 87 | 221 | 1.0 | 5.0 | 0.00 | 0.00 | 0.00 | 66 | |
| 20260906015545 | 87 | 223 | 2.0 | 7.0 | 0.00 | 0.00 | 0.00 | 65 | |
| 20260906014532 | 88 | 233 | 2.0 | 6.0 | 0.00 | 0.00 | 0.00 | 63 | |
| 20260906013524 | 88 | 229 | 3.0 | 6.0 | 0.00 | 0.00 | 0.00 | 61 | |
| 20260906012533 | 89 | 226 | 3.0 | 10.0 | 0.00 | 0.00 | 0.00 | 59 | |
| 20260906011525 | 90 | 233 | 3.0 | 7.0 | 0.00 | 0.00 | 0.00 | 55 | |
| 20260906010534 | 91 | 227 | 5.0 | 17.0 | 0.00 | 0.00 | 0.00 | 52 | |
| 20260906005524 | 92 | 228 | 0.0 | 2.0 | 0.00 | 0.00 | 0.00 | 48 | |
| 20260906004533 | 93 | 235 | 1.0 | 3.0 | 0.00 | 0.00 | 0.00 | 47 | |
| 20260906003524 | 94 | 231 | 1.0 | 4.0 | 0.00 | 0.00 | 0.00 | 46 | |
| 20260906002532 | 94 | 210 | 2.0 | 5.0 | 0.00 | 0.00 | 0.00 | 45 | |
| 20260906001524 | 95 | 230 | 1.0 | 6.0 | 0.00 | 0.00 | 0.00 | 44 | |
| 20260906000533 | 96 | 226 | 1.0 | 7.0 | 0.00 | 0.00 | 0.00 | 43 | |
| 20260905235525 | 97 | 232 | 3.0 | 7.0 | 0.00 | 0.00 | 0.00 | 41 | |
| 20260905234532 | 100 | 222 | 4.0 | 19.0 | 0.00 | 0.00 | 0.00 | 38 | |
| 20260905233525 | 101 | 215 | 2.0 | 7.0 | 0.00 | 0.00 | 0.00 | 35 | |
| 20260905232532 | 101 | 231 | 3.0 | 7.0 | 0.00 | 0.00 | 0.00 | 36 | |
| 20260905231525 | 103 | 219 | 2.0 | 7.0 | 0.00 | 0.00 | 0.00 | 35 | |
| 20260905230532 | 103 | 219 | 3.0 | 7.0 | 0.00 | 0.00 | 0.00 | 35 |